sensor_id;sensor_type;location;lat;lon;timestamp;temperature;humidity
42097;DHT22;27754;45.414;11.084;2022-10-19T00:01:15;14.80;87.30
42097;DHT22;27754;45.414;11.084;2022-10-19T00:03:43;14.70;87.60
42097;DHT22;27754;45.414;11.084;2022-10-19T00:06:24;14.70;87.50
42097;DHT22;27754;45.414;11.084;2022-10-19T00:08:57;14.60;87.60
42097;DHT22;27754;45.414;11.084;2022-10-19T00:11:25;14.60;88.10
42097;DHT22;27754;45.414;11.084;2022-10-19T00:13:53;14.70;87.70
42097;DHT22;27754;45.414;11.084;2022-10-19T00:16:22;14.60;87.40
42097;DHT22;27754;45.414;11.084;2022-10-19T00:18:49;14.60;87.40
42097;DHT22;27754;45.414;11.084;2022-10-19T00:21:18;14.60;88.00
42097;DHT22;27754;45.414;11.084;2022-10-19T00:23:45;14.70;88.30
42097;DHT22;27754;45.414;11.084;2022-10-19T00:26:12;14.60;87.80
42097;DHT22;27754;45.414;11.084;2022-10-19T00:28:40;14.60;87.60
42097;DHT22;27754;45.414;11.084;2022-10-19T00:31:10;14.60;87.80
42097;DHT22;27754;45.414;11.084;2022-10-19T00:33:38;14.60;87.60
42097;DHT22;27754;45.414;11.084;2022-10-19T00:36:12;14.70;87.60
42097;DHT22;27754;45.414;11.084;2022-10-19T00:38:41;14.70;87.70
42097;DHT22;27754;45.414;11.084;2022-10-19T00:41:08;14.90;88.20
42097;DHT22;27754;45.414;11.084;2022-10-19T00:44:00;15.00;88.30
42097;DHT22;27754;45.414;11.084;2022-10-19T00:46:30;15.10;88.10
42097;DHT22;27754;45.414;11.084;2022-10-19T00:49:01;15.10;88.20
42097;DHT22;27754;45.414;11.084;2022-10-19T00:51:33;15.20;87.90
42097;DHT22;27754;45.414;11.084;2022-10-19T00:54:05;15.20;87.80
42097;DHT22;27754;45.414;11.084;2022-10-19T00:56:33;15.20;87.80
42097;DHT22;27754;45.414;11.084;2022-10-19T00:59:03;15.20;87.80
42097;DHT22;27754;45.414;11.084;2022-10-19T01:01:30;15.20;88.00
42097;DHT22;27754;45.414;11.084;2022-10-19T01:03:59;15.20;88.00
42097;DHT22;27754;45.414;11.084;2022-10-19T01:06:26;15.30;88.00
42097;DHT22;27754;45.414;11.084;2022-10-19T01:08:53;15.30;88.10
42097;DHT22;27754;45.414;11.084;2022-10-19T01:11:33;15.30;87.80
42097;DHT22;27754;45.414;11.084;2022-10-19T01:17:02;15.20;88.20
42097;DHT22;27754;45.414;11.084;2022-10-19T01:30:14;14.80;87.50
42097;DHT22;27754;45.414;11.084;2022-10-19T01:32:49;14.80;87.70
42097;DHT22;27754;45.414;11.084;2022-10-19T01:38:36;14.70;87.80
42097;DHT22;27754;45.414;11.084;2022-10-19T01:41:15;14.60;88.20
42097;DHT22;27754;45.414;11.084;2022-10-19T01:46:46;14.60;88.30
42097;DHT22;27754;45.414;11.084;2022-10-19T01:49:34;14.70;88.30
42097;DHT22;27754;45.414;11.084;2022-10-19T01:52:06;14.60;88.20
42097;DHT22;27754;45.414;11.084;2022-10-19T01:54:41;14.70;88.40
42097;DHT22;27754;45.414;11.084;2022-10-19T01:57:10;14.60;88.30
42097;DHT22;27754;45.414;11.084;2022-10-19T01:59:38;14.50;88.30
42097;DHT22;27754;45.414;11.084;2022-10-19T02:02:09;14.50;88.40
42097;DHT22;27754;45.414;11.084;2022-10-19T02:04:37;14.50;88.50
42097;DHT22;27754;45.414;11.084;2022-10-19T02:07:06;14.50;88.60
42097;DHT22;27754;45.414;11.084;2022-10-19T02:09:34;14.50;88.60
42097;DHT22;27754;45.414;11.084;2022-10-19T02:12:04;14.50;88.70
42097;DHT22;27754;45.414;11.084;2022-10-19T02:14:36;14.50;88.80
42097;DHT22;27754;45.414;11.084;2022-10-19T02:17:08;14.60;88.80
42097;DHT22;27754;45.414;11.084;2022-10-19T02:19:36;14.50;88.80
42097;DHT22;27754;45.414;11.084;2022-10-19T02:22:04;14.40;88.40
42097;DHT22;27754;45.414;11.084;2022-10-19T02:24:31;14.40;88.50
42097;DHT22;27754;45.414;11.084;2022-10-19T02:26:59;14.40;88.20
42097;DHT22;27754;45.414;11.084;2022-10-19T02:29:27;14.30;88.40
42097;DHT22;27754;45.414;11.084;2022-10-19T02:31:54;14.30;88.30
42097;DHT22;27754;45.414;11.084;2022-10-19T02:34:21;14.30;88.40
42097;DHT22;27754;45.414;11.084;2022-10-19T02:36:48;14.20;88.50
42097;DHT22;27754;45.414;11.084;2022-10-19T02:39:15;14.10;89.00
42097;DHT22;27754;45.414;11.084;2022-10-19T02:42:03;14.20;89.10
42097;DHT22;27754;45.414;11.084;2022-10-19T02:44:39;14.20;89.10
42097;DHT22;27754;45.414;11.084;2022-10-19T02:47:25;14.20;89.30
42097;DHT22;27754;45.414;11.084;2022-10-19T02:49:53;14.20;89.40
42097;DHT22;27754;45.414;11.084;2022-10-19T02:52:20;14.30;89.50
42097;DHT22;27754;45.414;11.084;2022-10-19T02:54:47;14.20;89.50
42097;DHT22;27754;45.414;11.084;2022-10-19T02:57:19;14.20;89.10
42097;DHT22;27754;45.414;11.084;2022-10-19T02:59:46;14.20;89.00
42097;DHT22;27754;45.414;11.084;2022-10-19T03:02:14;14.10;88.60
42097;DHT22;27754;45.414;11.084;2022-10-19T03:04:42;14.00;88.40
42097;DHT22;27754;45.414;11.084;2022-10-19T03:07:13;13.90;88.00
42097;DHT22;27754;45.414;11.084;2022-10-19T03:09:41;13.90;88.40
42097;DHT22;27754;45.414;11.084;2022-10-19T03:12:09;13.90;88.70
42097;DHT22;27754;45.414;11.084;2022-10-19T03:14:36;13.90;89.00
42097;DHT22;27754;45.414;11.084;2022-10-19T03:17:03;13.90;89.30
42097;DHT22;27754;45.414;11.084;2022-10-19T03:19:31;13.90;89.10
42097;DHT22;27754;45.414;11.084;2022-10-19T03:21:58;13.80;89.10
42097;DHT22;27754;45.414;11.084;2022-10-19T03:24:25;13.80;88.80
42097;DHT22;27754;45.414;11.084;2022-10-19T03:26:52;13.70;88.60
42097;DHT22;27754;45.414;11.084;2022-10-19T03:29:19;13.60;88.40
42097;DHT22;27754;45.414;11.084;2022-10-19T03:31:46;13.60;88.10
42097;DHT22;27754;45.414;11.084;2022-10-19T03:34:12;13.50;88.70
42097;DHT22;27754;45.414;11.084;2022-10-19T03:36:39;13.50;89.20
42097;DHT22;27754;45.414;11.084;2022-10-19T03:39:10;13.50;89.40
42097;DHT22;27754;45.414;11.084;2022-10-19T03:41:38;13.50;89.10
42097;DHT22;27754;45.414;11.084;2022-10-19T03:44:06;13.60;89.70
42097;DHT22;27754;45.414;11.084;2022-10-19T03:46:34;13.60;90.10
42097;DHT22;27754;45.414;11.084;2022-10-19T03:49:01;13.60;90.10
42097;DHT22;27754;45.414;11.084;2022-10-19T03:51:30;13.60;90.10
42097;DHT22;27754;45.414;11.084;2022-10-19T03:54:06;13.60;89.70
42097;DHT22;27754;45.414;11.084;2022-10-19T03:56:34;13.60;90.00
42097;DHT22;27754;45.414;11.084;2022-10-19T03:59:03;13.50;89.60
42097;DHT22;27754;45.414;11.084;2022-10-19T04:01:39;13.50;89.90
42097;DHT22;27754;45.414;11.084;2022-10-19T04:04:11;13.50;90.10
42097;DHT22;27754;45.414;11.084;2022-10-19T04:06:40;13.50;90.10
42097;DHT22;27754;45.414;11.084;2022-10-19T04:09:11;13.50;90.00
42097;DHT22;27754;45.414;11.084;2022-10-19T04:11:39;13.50;90.10
42097;DHT22;27754;45.414;11.084;2022-10-19T04:14:06;13.50;89.90
42097;DHT22;27754;45.414;11.084;2022-10-19T04:16:33;13.50;90.10
42097;DHT22;27754;45.414;11.084;2022-10-19T04:19:00;13.50;89.80
42097;DHT22;27754;45.414;11.084;2022-10-19T04:21:28;13.50;89.80
42097;DHT22;27754;45.414;11.084;2022-10-19T04:24:00;13.50;89.90
42097;DHT22;27754;45.414;11.084;2022-10-19T04:26:28;13.40;90.00
42097;DHT22;27754;45.414;11.084;2022-10-19T04:28:59;13.50;90.00
42097;DHT22;27754;45.414;11.084;2022-10-19T04:31:27;13.50;89.80
42097;DHT22;27754;45.414;11.084;2022-10-19T04:33:55;13.50;89.90
42097;DHT22;27754;45.414;11.084;2022-10-19T04:36:22;13.50;90.20
42097;DHT22;27754;45.414;11.084;2022-10-19T04:38:49;13.60;90.20
42097;DHT22;27754;45.414;11.084;2022-10-19T04:41:18;13.60;90.30
42097;DHT22;27754;45.414;11.084;2022-10-19T04:43:46;13.60;90.30
42097;DHT22;27754;45.414;11.084;2022-10-19T04:46:16;13.60;90.30
42097;DHT22;27754;45.414;11.084;2022-10-19T04:48:44;13.70;90.30
42097;DHT22;27754;45.414;11.084;2022-10-19T04:51:11;13.80;90.50
42097;DHT22;27754;45.414;11.084;2022-10-19T04:53:40;13.80;90.40
42097;DHT22;27754;45.414;11.084;2022-10-19T04:56:13;13.70;89.90
42097;DHT22;27754;45.414;11.084;2022-10-19T04:58:40;13.70;90.00
42097;DHT22;27754;45.414;11.084;2022-10-19T05:01:33;13.70;90.00
42097;DHT22;27754;45.414;11.084;2022-10-19T05:04:01;13.70;89.90
42097;DHT22;27754;45.414;11.084;2022-10-19T05:06:30;13.60;89.70
42097;DHT22;27754;45.414;11.084;2022-10-19T05:08:57;13.50;89.50
42097;DHT22;27754;45.414;11.084;2022-10-19T05:11:25;13.60;89.80
42097;DHT22;27754;45.414;11.084;2022-10-19T05:13:52;13.60;89.90
42097;DHT22;27754;45.414;11.084;2022-10-19T05:16:21;13.70;89.80
42097;DHT22;27754;45.414;11.084;2022-10-19T05:18:52;13.70;89.80
42097;DHT22;27754;45.414;11.084;2022-10-19T05:21:21;13.70;89.70
42097;DHT22;27754;45.414;11.084;2022-10-19T05:23:52;13.70;89.70
42097;DHT22;27754;45.414;11.084;2022-10-19T05:26:21;13.70;89.50
42097;DHT22;27754;45.414;11.084;2022-10-19T05:28:53;13.70;89.60
42097;DHT22;27754;45.414;11.084;2022-10-19T05:31:25;13.70;89.40
42097;DHT22;27754;45.414;11.084;2022-10-19T05:33:53;13.70;89.30
42097;DHT22;27754;45.414;11.084;2022-10-19T05:38:55;13.70;89.30
42097;DHT22;27754;45.414;11.084;2022-10-19T05:41:23;13.60;89.40
42097;DHT22;27754;45.414;11.084;2022-10-19T05:43:58;13.60;89.00
42097;DHT22;27754;45.414;11.084;2022-10-19T05:46:27;13.50;89.10
42097;DHT22;27754;45.414;11.084;2022-10-19T05:48:56;13.50;89.10
42097;DHT22;27754;45.414;11.084;2022-10-19T05:51:26;13.50;89.40
42097;DHT22;27754;45.414;11.084;2022-10-19T05:53:54;13.70;89.70
42097;DHT22;27754;45.414;11.084;2022-10-19T05:56:24;13.70;89.70
42097;DHT22;27754;45.414;11.084;2022-10-19T05:58:52;13.70;89.80
42097;DHT22;27754;45.414;11.084;2022-10-19T06:01:19;13.80;89.60
42097;DHT22;27754;45.414;11.084;2022-10-19T06:03:47;13.80;89.60
42097;DHT22;27754;45.414;11.084;2022-10-19T06:06:16;13.90;89.40
42097;DHT22;27754;45.414;11.084;2022-10-19T06:08:43;13.90;89.10
42097;DHT22;27754;45.414;11.084;2022-10-19T06:11:13;13.90;89.30
42097;DHT22;27754;45.414;11.084;2022-10-19T06:13:41;14.00;89.20
42097;DHT22;27754;45.414;11.084;2022-10-19T06:16:10;14.00;88.80
42097;DHT22;27754;45.414;11.084;2022-10-19T06:18:38;14.10;88.90
42097;DHT22;27754;45.414;11.084;2022-10-19T06:21:09;14.10;89.00
42097;DHT22;27754;45.414;11.084;2022-10-19T06:23:36;14.10;89.00
42097;DHT22;27754;45.414;11.084;2022-10-19T06:26:11;14.20;88.70
42097;DHT22;27754;45.414;11.084;2022-10-19T06:28:40;14.30;88.60
42097;DHT22;27754;45.414;11.084;2022-10-19T06:31:08;14.30;88.50
42097;DHT22;27754;45.414;11.084;2022-10-19T06:33:35;14.30;88.60
42097;DHT22;27754;45.414;11.084;2022-10-19T06:36:17;14.30;88.20
42097;DHT22;27754;45.414;11.084;2022-10-19T06:38:44;14.40;88.20
42097;DHT22;27754;45.414;11.084;2022-10-19T06:41:11;14.40;87.90
42097;DHT22;27754;45.414;11.084;2022-10-19T06:43:38;14.50;87.90
42097;DHT22;27754;45.414;11.084;2022-10-19T06:46:11;14.60;87.80
42097;DHT22;27754;45.414;11.084;2022-10-19T06:48:38;14.70;87.60
42097;DHT22;27754;45.414;11.084;2022-10-19T06:51:06;14.80;88.10
42097;DHT22;27754;45.414;11.084;2022-10-19T06:53:36;15.00;87.80
42097;DHT22;27754;45.414;11.084;2022-10-19T06:56:04;15.00;87.50
42097;DHT22;27754;45.414;11.084;2022-10-19T06:58:37;15.20;86.90
42097;DHT22;27754;45.414;11.084;2022-10-19T07:01:06;15.30;86.60
42097;DHT22;27754;45.414;11.084;2022-10-19T07:03:33;15.40;86.10
42097;DHT22;27754;45.414;11.084;2022-10-19T07:06:02;15.60;86.20
42097;DHT22;27754;45.414;11.084;2022-10-19T07:08:31;15.80;85.90
42097;DHT22;27754;45.414;11.084;2022-10-19T07:11:01;15.90;85.80
42097;DHT22;27754;45.414;11.084;2022-10-19T07:13:29;16.00;85.70
42097;DHT22;27754;45.414;11.084;2022-10-19T07:15:57;16.20;85.30
42097;DHT22;27754;45.414;11.084;2022-10-19T07:18:25;16.30;84.60
42097;DHT22;27754;45.414;11.084;2022-10-19T07:20:53;16.40;84.40
42097;DHT22;27754;45.414;11.084;2022-10-19T07:23:20;16.60;84.30
42097;DHT22;27754;45.414;11.084;2022-10-19T07:25:47;16.70;83.70
42097;DHT22;27754;45.414;11.084;2022-10-19T07:28:14;16.80;83.30
42097;DHT22;27754;45.414;11.084;2022-10-19T07:30:41;16.90;82.40
42097;DHT22;27754;45.414;11.084;2022-10-19T07:33:08;16.90;82.30
42097;DHT22;27754;45.414;11.084;2022-10-19T07:35:35;16.90;83.10
42097;DHT22;27754;45.414;11.084;2022-10-19T07:38:02;17.00;82.50
42097;DHT22;27754;45.414;11.084;2022-10-19T07:40:29;17.10;82.30
42097;DHT22;27754;45.414;11.084;2022-10-19T07:42:56;17.30;82.40
42097;DHT22;27754;45.414;11.084;2022-10-19T07:45:23;17.30;82.40
42097;DHT22;27754;45.414;11.084;2022-10-19T07:47:50;17.30;82.40
42097;DHT22;27754;45.414;11.084;2022-10-19T07:50:16;17.50;82.50
42097;DHT22;27754;45.414;11.084;2022-10-19T07:52:43;17.60;82.30
42097;DHT22;27754;45.414;11.084;2022-10-19T07:55:10;17.50;82.10
42097;DHT22;27754;45.414;11.084;2022-10-19T07:57:37;17.60;81.90
42097;DHT22;27754;45.414;11.084;2022-10-19T08:00:07;17.70;81.80
42097;DHT22;27754;45.414;11.084;2022-10-19T08:02:37;17.80;81.80
42097;DHT22;27754;45.414;11.084;2022-10-19T08:05:24;17.90;81.10
42097;DHT22;27754;45.414;11.084;2022-10-19T08:07:51;17.90;81.00
42097;DHT22;27754;45.414;11.084;2022-10-19T08:10:18;17.90;80.70
42097;DHT22;27754;45.414;11.084;2022-10-19T08:12:45;18.10;80.90
42097;DHT22;27754;45.414;11.084;2022-10-19T08:15:12;18.10;80.40
42097;DHT22;27754;45.414;11.084;2022-10-19T08:17:39;18.10;80.70
42097;DHT22;27754;45.414;11.084;2022-10-19T08:20:06;18.30;80.40
42097;DHT22;27754;45.414;11.084;2022-10-19T08:22:33;18.30;79.90
42097;DHT22;27754;45.414;11.084;2022-10-19T08:25:01;18.30;80.00
42097;DHT22;27754;45.414;11.084;2022-10-19T08:27:28;18.40;80.00
42097;DHT22;27754;45.414;11.084;2022-10-19T08:29:56;18.50;79.40
42097;DHT22;27754;45.414;11.084;2022-10-19T08:32:23;18.60;79.10
42097;DHT22;27754;45.414;11.084;2022-10-19T08:34:50;18.70;78.40
42097;DHT22;27754;45.414;11.084;2022-10-19T08:37:16;18.70;78.60
42097;DHT22;27754;45.414;11.084;2022-10-19T08:39:58;18.80;79.00
42097;DHT22;27754;45.414;11.084;2022-10-19T08:42:56;18.80;79.00
42097;DHT22;27754;45.414;11.084;2022-10-19T08:45:26;18.90;78.70
42097;DHT22;27754;45.414;11.084;2022-10-19T08:50:44;18.90;78.10
42097;DHT22;27754;45.414;11.084;2022-10-19T08:53:30;19.00;78.00
42097;DHT22;27754;45.414;11.084;2022-10-19T08:56:19;19.10;77.50
42097;DHT22;27754;45.414;11.084;2022-10-19T08:59:25;19.20;77.50
42097;DHT22;27754;45.414;11.084;2022-10-19T09:01:57;19.30;77.60
42097;DHT22;27754;45.414;11.084;2022-10-19T09:04:34;19.30;77.30
42097;DHT22;27754;45.414;11.084;2022-10-19T09:09:42;19.30;77.20
42097;DHT22;27754;45.414;11.084;2022-10-19T09:12:13;19.40;77.40
42097;DHT22;27754;45.414;11.084;2022-10-19T09:14:58;19.40;77.10
42097;DHT22;27754;45.414;11.084;2022-10-19T09:17:26;19.60;77.30
42097;DHT22;27754;45.414;11.084;2022-10-19T09:19:54;19.60;77.20
42097;DHT22;27754;45.414;11.084;2022-10-19T09:22:31;19.70;77.20
42097;DHT22;27754;45.414;11.084;2022-10-19T09:25:07;19.80;76.80
42097;DHT22;27754;45.414;11.084;2022-10-19T09:27:38;19.80;76.80
42097;DHT22;27754;45.414;11.084;2022-10-19T09:30:20;19.80;76.30
42097;DHT22;27754;45.414;11.084;2022-10-19T09:32:50;19.80;76.50
42097;DHT22;27754;45.414;11.084;2022-10-19T09:35:48;19.90;76.20
42097;DHT22;27754;45.414;11.084;2022-10-19T09:38:15;20.00;75.90
42097;DHT22;27754;45.414;11.084;2022-10-19T09:40:43;20.00;74.80
42097;DHT22;27754;45.414;11.084;2022-10-19T09:43:10;20.10;75.20
42097;DHT22;27754;45.414;11.084;2022-10-19T09:45:54;20.10;75.60
42097;DHT22;27754;45.414;11.084;2022-10-19T09:51:01;20.20;75.60
42097;DHT22;27754;45.414;11.084;2022-10-19T09:53:29;20.20;75.30
42097;DHT22;27754;45.414;11.084;2022-10-19T09:56:03;20.20;75.30
42097;DHT22;27754;45.414;11.084;2022-10-19T09:58:32;20.30;75.20
42097;DHT22;27754;45.414;11.084;2022-10-19T10:01:00;20.30;74.50
42097;DHT22;27754;45.414;11.084;2022-10-19T10:03:36;20.40;74.20
42097;DHT22;27754;45.414;11.084;2022-10-19T10:08:43;20.50;73.80
42097;DHT22;27754;45.414;11.084;2022-10-19T10:11:14;20.50;74.20
42097;DHT22;27754;45.414;11.084;2022-10-19T10:13:43;20.60;74.70
42097;DHT22;27754;45.414;11.084;2022-10-19T10:16:15;20.60;73.90
42097;DHT22;27754;45.414;11.084;2022-10-19T10:19:06;20.70;73.90
42097;DHT22;27754;45.414;11.084;2022-10-19T10:21:49;20.70;73.30
42097;DHT22;27754;45.414;11.084;2022-10-19T10:24:18;20.80;73.50
42097;DHT22;27754;45.414;11.084;2022-10-19T10:26:54;20.80;73.90
42097;DHT22;27754;45.414;11.084;2022-10-19T10:29:27;20.90;74.30
42097;DHT22;27754;45.414;11.084;2022-10-19T10:31:59;20.90;73.50
42097;DHT22;27754;45.414;11.084;2022-10-19T10:37:21;21.00;73.40
42097;DHT22;27754;45.414;11.084;2022-10-19T10:39:53;21.00;73.50
42097;DHT22;27754;45.414;11.084;2022-10-19T10:42:40;21.10;73.50
42097;DHT22;27754;45.414;11.084;2022-10-19T10:47:52;21.30;73.60
42097;DHT22;27754;45.414;11.084;2022-10-19T10:50:26;21.20;72.80
42097;DHT22;27754;45.414;11.084;2022-10-19T10:56:25;21.30;73.40
42097;DHT22;27754;45.414;11.084;2022-10-19T11:01:34;21.40;72.60
42097;DHT22;27754;45.414;11.084;2022-10-19T11:04:10;21.40;72.00
42097;DHT22;27754;45.414;11.084;2022-10-19T11:06:43;21.40;72.10
42097;DHT22;27754;45.414;11.084;2022-10-19T11:11:48;21.60;72.20
42097;DHT22;27754;45.414;11.084;2022-10-19T11:14:44;21.70;72.10
42097;DHT22;27754;45.414;11.084;2022-10-19T11:17:24;21.80;71.20
42097;DHT22;27754;45.414;11.084;2022-10-19T11:19:52;21.70;71.50
42097;DHT22;27754;45.414;11.084;2022-10-19T11:22:27;21.70;71.40
42097;DHT22;27754;45.414;11.084;2022-10-19T11:30:30;21.80;71.10
42097;DHT22;27754;45.414;11.084;2022-10-19T11:33:15;21.80;71.00
42097;DHT22;27754;45.414;11.084;2022-10-19T11:36:04;21.90;70.80
42097;DHT22;27754;45.414;11.084;2022-10-19T11:38:41;22.00;71.20
42097;DHT22;27754;45.414;11.084;2022-10-19T11:41:43;22.00;70.70
42097;DHT22;27754;45.414;11.084;2022-10-19T11:52:15;22.40;69.70
42097;DHT22;27754;45.414;11.084;2022-10-19T11:57:29;22.40;69.20
42097;DHT22;27754;45.414;11.084;2022-10-19T12:00:17;22.40;69.50
42097;DHT22;27754;45.414;11.084;2022-10-19T12:14:20;22.60;69.30
42097;DHT22;27754;45.414;11.084;2022-10-19T12:16:58;22.70;69.10
42097;DHT22;27754;45.414;11.084;2022-10-19T12:19:31;22.80;68.80
42097;DHT22;27754;45.414;11.084;2022-10-19T12:22:05;22.80;67.50
42097;DHT22;27754;45.414;11.084;2022-10-19T12:24:33;22.90;67.40
42097;DHT22;27754;45.414;11.084;2022-10-19T12:27:01;22.90;67.30
42097;DHT22;27754;45.414;11.084;2022-10-19T12:29:32;22.90;67.20
42097;DHT22;27754;45.414;11.084;2022-10-19T12:32:01;22.90;67.60
42097;DHT22;27754;45.414;11.084;2022-10-19T12:35:14;22.90;68.10
42097;DHT22;27754;45.414;11.084;2022-10-19T12:37:57;23.00;68.00
42097;DHT22;27754;45.414;11.084;2022-10-19T12:40:38;23.00;66.80
42097;DHT22;27754;45.414;11.084;2022-10-19T12:43:15;23.10;66.70
42097;DHT22;27754;45.414;11.084;2022-10-19T12:45:51;23.10;66.90
42097;DHT22;27754;45.414;11.084;2022-10-19T12:48:25;23.10;66.30
42097;DHT22;27754;45.414;11.084;2022-10-19T12:53:41;23.20;65.50
42097;DHT22;27754;45.414;11.084;2022-10-19T12:58:48;23.30;65.80
42097;DHT22;27754;45.414;11.084;2022-10-19T13:01:23;23.30;65.90
42097;DHT22;27754;45.414;11.084;2022-10-19T13:04:12;23.30;65.20
42097;DHT22;27754;45.414;11.084;2022-10-19T13:09:43;23.40;64.40
42097;DHT22;27754;45.414;11.084;2022-10-19T13:14:59;23.50;64.50
42097;DHT22;27754;45.414;11.084;2022-10-19T13:27:44;23.80;63.10
42097;DHT22;27754;45.414;11.084;2022-10-19T13:36:06;23.80;62.50
42097;DHT22;27754;45.414;11.084;2022-10-19T13:41:46;23.80;62.20
42097;DHT22;27754;45.414;11.084;2022-10-19T13:44:20;23.90;61.90
42097;DHT22;27754;45.414;11.084;2022-10-19T13:58:43;23.80;62.00
42097;DHT22;27754;45.414;11.084;2022-10-19T14:01:37;23.80;61.50
42097;DHT22;27754;45.414;11.084;2022-10-19T14:09:44;23.80;60.80
42097;DHT22;27754;45.414;11.084;2022-10-19T14:12:20;23.80;60.70
42097;DHT22;27754;45.414;11.084;2022-10-19T14:14:49;23.80;60.90
42097;DHT22;27754;45.414;11.084;2022-10-19T14:17:25;23.70;61.00
42097;DHT22;27754;45.414;11.084;2022-10-19T14:19:56;23.70;61.20
42097;DHT22;27754;45.414;11.084;2022-10-19T14:22:31;23.70;61.10
42097;DHT22;27754;45.414;11.084;2022-10-19T14:27:34;23.60;61.40
42097;DHT22;27754;45.414;11.084;2022-10-19T14:30:02;23.60;61.40
42097;DHT22;27754;45.414;11.084;2022-10-19T14:32:32;23.50;61.50
42097;DHT22;27754;45.414;11.084;2022-10-19T14:35:12;23.50;61.80
42097;DHT22;27754;45.414;11.084;2022-10-19T14:37:43;23.60;60.60
42097;DHT22;27754;45.414;11.084;2022-10-19T14:42:54;23.50;60.30
42097;DHT22;27754;45.414;11.084;2022-10-19T14:45:27;23.50;59.60
42097;DHT22;27754;45.414;11.084;2022-10-19T14:48:04;23.40;60.30
42097;DHT22;27754;45.414;11.084;2022-10-19T14:56:14;23.30;60.90
42097;DHT22;27754;45.414;11.084;2022-10-19T14:58:58;23.30;61.20
42097;DHT22;27754;45.414;11.084;2022-10-19T15:01:26;23.20;61.40
42097;DHT22;27754;45.414;11.084;2022-10-19T15:03:53;23.20;61.60
42097;DHT22;27754;45.414;11.084;2022-10-19T15:06:31;23.20;61.80
42097;DHT22;27754;45.414;11.084;2022-10-19T15:09:04;23.10;61.90
42097;DHT22;27754;45.414;11.084;2022-10-19T15:11:44;23.00;62.30
42097;DHT22;27754;45.414;11.084;2022-10-19T15:14:25;23.00;62.50
42097;DHT22;27754;45.414;11.084;2022-10-19T15:16:59;23.00;62.70
42097;DHT22;27754;45.414;11.084;2022-10-19T15:19:37;22.90;62.90
42097;DHT22;27754;45.414;11.084;2022-10-19T15:22:12;22.90;62.70
42097;DHT22;27754;45.414;11.084;2022-10-19T15:27:27;22.90;63.00
42097;DHT22;27754;45.414;11.084;2022-10-19T15:30:00;22.80;63.00
42097;DHT22;27754;45.414;11.084;2022-10-19T15:32:36;22.80;62.90
42097;DHT22;27754;45.414;11.084;2022-10-19T15:35:34;22.70;62.40
42097;DHT22;27754;45.414;11.084;2022-10-19T15:38:04;22.70;62.80
42097;DHT22;27754;45.414;11.084;2022-10-19T15:40:34;22.50;63.10
42097;DHT22;27754;45.414;11.084;2022-10-19T15:51:31;22.20;64.60
42097;DHT22;27754;45.414;11.084;2022-10-19T15:54:04;22.10;64.90
42097;DHT22;27754;45.414;11.084;2022-10-19T15:56:34;22.10;65.10
42097;DHT22;27754;45.414;11.084;2022-10-19T15:59:10;21.90;65.50
42097;DHT22;27754;45.414;11.084;2022-10-19T16:01:37;21.90;65.90
42097;DHT22;27754;45.414;11.084;2022-10-19T16:04:04;21.80;66.30
42097;DHT22;27754;45.414;11.084;2022-10-19T16:06:33;21.70;66.80
42097;DHT22;27754;45.414;11.084;2022-10-19T16:09:00;21.60;67.30
42097;DHT22;27754;45.414;11.084;2022-10-19T16:11:28;21.50;67.70
42097;DHT22;27754;45.414;11.084;2022-10-19T16:13:55;21.40;68.10
42097;DHT22;27754;45.414;11.084;2022-10-19T16:16:28;21.30;68.50
42097;DHT22;27754;45.414;11.084;2022-10-19T16:18:56;21.20;68.80
42097;DHT22;27754;45.414;11.084;2022-10-19T16:21:31;21.20;69.10
42097;DHT22;27754;45.414;11.084;2022-10-19T16:23:58;21.10;69.40
42097;DHT22;27754;45.414;11.084;2022-10-19T16:26:26;21.00;69.60
42097;DHT22;27754;45.414;11.084;2022-10-19T16:28:54;21.00;69.80
42097;DHT22;27754;45.414;11.084;2022-10-19T16:31:22;20.90;70.00
42097;DHT22;27754;45.414;11.084;2022-10-19T16:33:50;20.90;69.90
42097;DHT22;27754;45.414;11.084;2022-10-19T16:36:16;20.90;70.80
42097;DHT22;27754;45.414;11.084;2022-10-19T16:38:46;21.00;70.20
42097;DHT22;27754;45.414;11.084;2022-10-19T16:41:14;21.00;70.10
42097;DHT22;27754;45.414;11.084;2022-10-19T16:43:41;20.90;70.20
42097;DHT22;27754;45.414;11.084;2022-10-19T16:46:08;20.80;70.80
42097;DHT22;27754;45.414;11.084;2022-10-19T16:48:35;20.80;71.10
42097;DHT22;27754;45.414;11.084;2022-10-19T16:51:32;20.80;71.20
42097;DHT22;27754;45.414;11.084;2022-10-19T16:54:00;20.80;71.30
42097;DHT22;27754;45.414;11.084;2022-10-19T16:56:29;20.60;71.50
42097;DHT22;27754;45.414;11.084;2022-10-19T16:59:01;20.50;71.90
42097;DHT22;27754;45.414;11.084;2022-10-19T17:01:29;20.40;72.00
42097;DHT22;27754;45.414;11.084;2022-10-19T17:03:57;20.50;71.80
42097;DHT22;27754;45.414;11.084;2022-10-19T17:06:25;20.40;72.20
42097;DHT22;27754;45.414;11.084;2022-10-19T17:08:52;20.40;73.00
42097;DHT22;27754;45.414;11.084;2022-10-19T17:11:40;20.30;73.90
42097;DHT22;27754;45.414;11.084;2022-10-19T17:14:10;20.30;74.60
42097;DHT22;27754;45.414;11.084;2022-10-19T17:16:37;20.10;74.90
42097;DHT22;27754;45.414;11.084;2022-10-19T17:19:06;20.00;75.50
42097;DHT22;27754;45.414;11.084;2022-10-19T17:21:35;20.00;76.40
42097;DHT22;27754;45.414;11.084;2022-10-19T17:24:07;19.90;76.80
42097;DHT22;27754;45.414;11.084;2022-10-19T17:26:39;19.80;77.30
42097;DHT22;27754;45.414;11.084;2022-10-19T17:29:08;19.80;77.70
42097;DHT22;27754;45.414;11.084;2022-10-19T17:31:36;19.70;78.20
42097;DHT22;27754;45.414;11.084;2022-10-19T17:34:03;19.60;78.30
42097;DHT22;27754;45.414;11.084;2022-10-19T17:36:34;19.50;78.30
42097;DHT22;27754;45.414;11.084;2022-10-19T17:39:05;19.40;78.50
42097;DHT22;27754;45.414;11.084;2022-10-19T17:41:33;19.40;78.60
42097;DHT22;27754;45.414;11.084;2022-10-19T17:44:02;19.30;78.70
42097;DHT22;27754;45.414;11.084;2022-10-19T17:46:31;19.20;78.90
42097;DHT22;27754;45.414;11.084;2022-10-19T17:48:58;19.10;79.20
42097;DHT22;27754;45.414;11.084;2022-10-19T17:51:27;19.10;79.10
42097;DHT22;27754;45.414;11.084;2022-10-19T17:53:57;19.00;79.10
42097;DHT22;27754;45.414;11.084;2022-10-19T17:56:25;18.90;79.30
42097;DHT22;27754;45.414;11.084;2022-10-19T17:58:53;18.90;79.40
42097;DHT22;27754;45.414;11.084;2022-10-19T18:01:20;18.90;79.30
42097;DHT22;27754;45.414;11.084;2022-10-19T18:03:48;18.80;79.30
42097;DHT22;27754;45.414;11.084;2022-10-19T18:08:51;18.80;79.20